LFMH/EBU METAR and TAF weather

Enter ICAO airport designator
Station Type Date Time Source
LFMH METAR 2020/01/23 21:00 UTC NOAA

LFMH 232100Z AUTO VRB02KT 4500 BR NSC M00/M01 Q1024 NOSIG


Station Type Date Time Source
LFMH Decoded METAR 2020/01/23 21:00 UTC NOAA

St-Etienne Boutheon, France (LFMH) 45-32N 004-18E 402M
Jan 23, 2020 - 04:00 PM EST / 2020.01.23 2100 UTC
Wind: Variable at 2 MPH (2 KT):0
Visibility: 2 mile(s):0
Weather: mist
Temperature: 32 F (0 C)
Dew Point: 30 F (-1 C)
Relative Humidity: 92%
Pressure (altimeter): 30.24 in. Hg (1024 hPa)
ob: LFMH 232100Z AUTO VRB02KT 4500 BR NSC M00/M01 Q1024 NOSIG
cycle: 21

Station Type Date Time Source
LFMH TAF 2020/01/23 21:12 UTC NOAA

TAF TAF LFMH 232106Z 2321/2415 CNL

Example: see airport list